sensor_id;sensor_type;location;lat;lon;timestamp;P1;durP1;ratioP1;P2;durP2;ratioP2
16660;SDS011;8444;52.012;5.048;2023-03-21T00:01:53;16.63;;;12.40;;
16660;SDS011;8444;52.012;5.048;2023-03-21T00:04:19;16.83;;;11.43;;
16660;SDS011;8444;52.012;5.048;2023-03-21T00:06:45;18.03;;;12.47;;
16660;SDS011;8444;52.012;5.048;2023-03-21T00:09:10;15.70;;;11.23;;
16660;SDS011;8444;52.012;5.048;2023-03-21T00:11:36;16.83;;;11.93;;
16660;SDS011;8444;52.012;5.048;2023-03-21T00:14:01;16.73;;;11.87;;
16660;SDS011;8444;52.012;5.048;2023-03-21T00:16:26;12.93;;;10.37;;
16660;SDS011;8444;52.012;5.048;2023-03-21T00:18:54;16.67;;;11.30;;
16660;SDS011;8444;52.012;5.048;2023-03-21T00:21:21;17.47;;;11.17;;
16660;SDS011;8444;52.012;5.048;2023-03-21T00:23:46;14.90;;;11.13;;
16660;SDS011;8444;52.012;5.048;2023-03-21T00:26:11;15.10;;;11.13;;
16660;SDS011;8444;52.012;5.048;2023-03-21T00:28:38;16.60;;;12.90;;
16660;SDS011;8444;52.012;5.048;2023-03-21T00:31:03;19.57;;;10.73;;
16660;SDS011;8444;52.012;5.048;2023-03-21T00:33:28;16.67;;;11.47;;
16660;SDS011;8444;52.012;5.048;2023-03-21T00:35:54;19.77;;;13.17;;
16660;SDS011;8444;52.012;5.048;2023-03-21T00:38:20;18.37;;;12.80;;
16660;SDS011;8444;52.012;5.048;2023-03-21T00:40:45;18.93;;;14.93;;
16660;SDS011;8444;52.012;5.048;2023-03-21T00:43:11;21.97;;;14.70;;
16660;SDS011;8444;52.012;5.048;2023-03-21T00:45:36;23.60;;;16.90;;
16660;SDS011;8444;52.012;5.048;2023-03-21T00:48:02;21.13;;;16.17;;
16660;SDS011;8444;52.012;5.048;2023-03-21T00:50:27;25.10;;;17.47;;
16660;SDS011;8444;52.012;5.048;2023-03-21T00:52:52;24.43;;;16.90;;
16660;SDS011;8444;52.012;5.048;2023-03-21T00:55:17;26.27;;;18.73;;
16660;SDS011;8444;52.012;5.048;2023-03-21T00:57:43;25.23;;;18.30;;
16660;SDS011;8444;52.012;5.048;2023-03-21T01:00:09;26.33;;;17.33;;
16660;SDS011;8444;52.012;5.048;2023-03-21T01:02:36;23.93;;;18.17;;
16660;SDS011;8444;52.012;5.048;2023-03-21T01:05:02;26.50;;;17.87;;
16660;SDS011;8444;52.012;5.048;2023-03-21T01:07:27;26.63;;;17.57;;
16660;SDS011;8444;52.012;5.048;2023-03-21T01:09:53;28.13;;;19.37;;
16660;SDS011;8444;52.012;5.048;2023-03-21T01:12:18;25.63;;;18.10;;
16660;SDS011;8444;52.012;5.048;2023-03-21T01:14:43;28.03;;;18.33;;
16660;SDS011;8444;52.012;5.048;2023-03-21T01:17:08;25.60;;;18.60;;
16660;SDS011;8444;52.012;5.048;2023-03-21T01:19:34;27.90;;;18.90;;
16660;SDS011;8444;52.012;5.048;2023-03-21T01:21:59;34.37;;;19.47;;
16660;SDS011;8444;52.012;5.048;2023-03-21T01:24:25;26.80;;;19.67;;
16660;SDS011;8444;52.012;5.048;2023-03-21T01:26:50;28.73;;;19.03;;
16660;SDS011;8444;52.012;5.048;2023-03-21T01:29:15;26.13;;;19.20;;
16660;SDS011;8444;52.012;5.048;2023-03-21T01:31:40;27.37;;;18.73;;
16660;SDS011;8444;52.012;5.048;2023-03-21T01:34:06;27.77;;;19.03;;
16660;SDS011;8444;52.012;5.048;2023-03-21T01:36:31;34.37;;;20.00;;
16660;SDS011;8444;52.012;5.048;2023-03-21T01:38:56;27.83;;;18.80;;
16660;SDS011;8444;52.012;5.048;2023-03-21T01:41:29;31.97;;;21.10;;
16660;SDS011;8444;52.012;5.048;2023-03-21T01:43:55;35.73;;;19.77;;
16660;SDS011;8444;52.012;5.048;2023-03-21T01:46:53;29.27;;;18.17;;
16660;SDS011;8444;52.012;5.048;2023-03-21T01:49:18;32.97;;;17.53;;
16660;SDS011;8444;52.012;5.048;2023-03-21T01:51:45;28.70;;;18.33;;
16660;SDS011;8444;52.012;5.048;2023-03-21T01:54:13;28.73;;;18.53;;
16660;SDS011;8444;52.012;5.048;2023-03-21T01:56:39;32.47;;;19.30;;
16660;SDS011;8444;52.012;5.048;2023-03-21T01:59:16;24.93;;;18.00;;
16660;SDS011;8444;52.012;5.048;2023-03-21T02:01:45;32.37;;;18.70;;
16660;SDS011;8444;52.012;5.048;2023-03-21T02:04:11;30.77;;;17.40;;
16660;SDS011;8444;52.012;5.048;2023-03-21T02:09:06;26.27;;;16.83;;
16660;SDS011;8444;52.012;5.048;2023-03-21T02:11:32;23.87;;;16.40;;
16660;SDS011;8444;52.012;5.048;2023-03-21T02:13:58;25.10;;;16.73;;
16660;SDS011;8444;52.012;5.048;2023-03-21T02:16:28;27.43;;;18.50;;
16660;SDS011;8444;52.012;5.048;2023-03-21T02:38:58;24.23;;;16.70;;
16660;SDS011;8444;52.012;5.048;2023-03-21T02:43:58;27.30;;;16.93;;
16660;SDS011;8444;52.012;5.048;2023-03-21T02:49:08;22.67;;;15.43;;
16660;SDS011;8444;52.012;5.048;2023-03-21T02:51:35;24.93;;;15.47;;
16660;SDS011;8444;52.012;5.048;2023-03-21T02:54:02;21.27;;;14.77;;
16660;SDS011;8444;52.012;5.048;2023-03-21T02:56:28;21.30;;;14.47;;
16660;SDS011;8444;52.012;5.048;2023-03-21T02:58:55;22.20;;;14.00;;
16660;SDS011;8444;52.012;5.048;2023-03-21T03:01:20;20.87;;;13.47;;
16660;SDS011;8444;52.012;5.048;2023-03-21T03:03:46;21.20;;;12.93;;
16660;SDS011;8444;52.012;5.048;2023-03-21T03:06:18;19.70;;;13.07;;
16660;SDS011;8444;52.012;5.048;2023-03-21T03:18:40;16.20;;;12.53;;
16660;SDS011;8444;52.012;5.048;2023-03-21T03:21:30;16.07;;;11.17;;
16660;SDS011;8444;52.012;5.048;2023-03-21T03:24:00;17.37;;;10.23;;
16660;SDS011;8444;52.012;5.048;2023-03-21T03:26:33;19.60;;;11.90;;
16660;SDS011;8444;52.012;5.048;2023-03-21T03:29:02;17.63;;;12.97;;
16660;SDS011;8444;52.012;5.048;2023-03-21T03:31:30;17.90;;;10.97;;
16660;SDS011;8444;52.012;5.048;2023-03-21T03:33:57;22.57;;;12.63;;
16660;SDS011;8444;52.012;5.048;2023-03-21T03:36:26;18.37;;;11.93;;
16660;SDS011;8444;52.012;5.048;2023-03-21T03:38:53;19.77;;;11.87;;
16660;SDS011;8444;52.012;5.048;2023-03-21T03:41:27;26.03;;;12.93;;
16660;SDS011;8444;52.012;5.048;2023-03-21T03:43:54;17.30;;;10.30;;
16660;SDS011;8444;52.012;5.048;2023-03-21T03:46:29;22.50;;;11.27;;
16660;SDS011;8444;52.012;5.048;2023-03-21T03:48:58;22.43;;;11.43;;
16660;SDS011;8444;52.012;5.048;2023-03-21T03:51:26;19.43;;;11.97;;
16660;SDS011;8444;52.012;5.048;2023-03-21T03:53:56;16.70;;;11.80;;
16660;SDS011;8444;52.012;5.048;2023-03-21T03:56:22;16.40;;;12.33;;
16660;SDS011;8444;52.012;5.048;2023-03-21T03:58:49;27.43;;;14.93;;
16660;SDS011;8444;52.012;5.048;2023-03-21T04:01:14;23.00;;;13.03;;
16660;SDS011;8444;52.012;5.048;2023-03-21T04:03:40;20.00;;;14.70;;
16660;SDS011;8444;52.012;5.048;2023-03-21T04:06:07;19.43;;;12.87;;
16660;SDS011;8444;52.012;5.048;2023-03-21T04:08:32;21.03;;;14.40;;
16660;SDS011;8444;52.012;5.048;2023-03-21T04:10:57;23.20;;;14.50;;
16660;SDS011;8444;52.012;5.048;2023-03-21T04:13:22;27.00;;;14.70;;
16660;SDS011;8444;52.012;5.048;2023-03-21T04:15:48;24.23;;;14.47;;
16660;SDS011;8444;52.012;5.048;2023-03-21T04:18:13;29.80;;;15.43;;
16660;SDS011;8444;52.012;5.048;2023-03-21T04:20:38;30.03;;;15.37;;
16660;SDS011;8444;52.012;5.048;2023-03-21T04:23:04;24.13;;;15.57;;
16660;SDS011;8444;52.012;5.048;2023-03-21T04:25:32;27.87;;;16.47;;
16660;SDS011;8444;52.012;5.048;2023-03-21T04:27:57;25.30;;;16.43;;
16660;SDS011;8444;52.012;5.048;2023-03-21T04:30:22;27.20;;;16.37;;
16660;SDS011;8444;52.012;5.048;2023-03-21T04:32:49;29.90;;;16.43;;
16660;SDS011;8444;52.012;5.048;2023-03-21T04:35:18;28.33;;;17.80;;
16660;SDS011;8444;52.012;5.048;2023-03-21T04:37:44;24.40;;;16.10;;
16660;SDS011;8444;52.012;5.048;2023-03-21T04:40:09;23.40;;;15.43;;
16660;SDS011;8444;52.012;5.048;2023-03-21T04:42:35;27.40;;;17.83;;
16660;SDS011;8444;52.012;5.048;2023-03-21T04:45:00;24.93;;;16.40;;
16660;SDS011;8444;52.012;5.048;2023-03-21T04:47:25;28.40;;;18.40;;
16660;SDS011;8444;52.012;5.048;2023-03-21T04:49:51;27.33;;;16.90;;
16660;SDS011;8444;52.012;5.048;2023-03-21T04:52:17;35.17;;;17.73;;
16660;SDS011;8444;52.012;5.048;2023-03-21T04:54:43;27.73;;;17.17;;
16660;SDS011;8444;52.012;5.048;2023-03-21T04:57:08;26.63;;;16.53;;
16660;SDS011;8444;52.012;5.048;2023-03-21T04:59:33;28.20;;;17.50;;
16660;SDS011;8444;52.012;5.048;2023-03-21T05:01:58;24.73;;;15.37;;
16660;SDS011;8444;52.012;5.048;2023-03-21T05:04:24;21.40;;;15.20;;
16660;SDS011;8444;52.012;5.048;2023-03-21T05:06:50;26.70;;;15.10;;
16660;SDS011;8444;52.012;5.048;2023-03-21T05:09:15;27.60;;;15.07;;
16660;SDS011;8444;52.012;5.048;2023-03-21T05:11:41;30.00;;;17.23;;
16660;SDS011;8444;52.012;5.048;2023-03-21T05:14:07;22.47;;;14.03;;
16660;SDS011;8444;52.012;5.048;2023-03-21T05:16:33;20.70;;;14.43;;
16660;SDS011;8444;52.012;5.048;2023-03-21T05:18:59;21.50;;;13.83;;
16660;SDS011;8444;52.012;5.048;2023-03-21T05:21:28;22.57;;;14.93;;
16660;SDS011;8444;52.012;5.048;2023-03-21T05:23:53;21.30;;;14.33;;
16660;SDS011;8444;52.012;5.048;2023-03-21T05:26:20;22.63;;;13.73;;
16660;SDS011;8444;52.012;5.048;2023-03-21T05:28:45;21.50;;;12.80;;
16660;SDS011;8444;52.012;5.048;2023-03-21T05:31:12;22.87;;;13.40;;
16660;SDS011;8444;52.012;5.048;2023-03-21T05:33:40;21.60;;;13.40;;
16660;SDS011;8444;52.012;5.048;2023-03-21T05:36:05;27.53;;;14.07;;
16660;SDS011;8444;52.012;5.048;2023-03-21T05:38:31;21.10;;;12.90;;
16660;SDS011;8444;52.012;5.048;2023-03-21T05:40:56;24.77;;;12.60;;
16660;SDS011;8444;52.012;5.048;2023-03-21T05:43:21;30.80;;;12.93;;
16660;SDS011;8444;52.012;5.048;2023-03-21T05:45:46;23.40;;;12.87;;
16660;SDS011;8444;52.012;5.048;2023-03-21T05:48:12;24.63;;;12.03;;
16660;SDS011;8444;52.012;5.048;2023-03-21T05:50:37;20.37;;;11.80;;
16660;SDS011;8444;52.012;5.048;2023-03-21T05:53:03;23.27;;;11.80;;
16660;SDS011;8444;52.012;5.048;2023-03-21T05:55:28;18.67;;;11.23;;
16660;SDS011;8444;52.012;5.048;2023-03-21T05:57:53;18.63;;;11.43;;
16660;SDS011;8444;52.012;5.048;2023-03-21T06:00:18;18.27;;;10.67;;
16660;SDS011;8444;52.012;5.048;2023-03-21T06:02:46;16.33;;;10.80;;
16660;SDS011;8444;52.012;5.048;2023-03-21T06:05:11;26.23;;;11.80;;
16660;SDS011;8444;52.012;5.048;2023-03-21T06:07:36;18.17;;;11.47;;
16660;SDS011;8444;52.012;5.048;2023-03-21T06:10:02;18.80;;;10.50;;
16660;SDS011;8444;52.012;5.048;2023-03-21T06:12:27;17.73;;;11.07;;
16660;SDS011;8444;52.012;5.048;2023-03-21T06:14:53;21.07;;;11.87;;
16660;SDS011;8444;52.012;5.048;2023-03-21T06:17:18;22.43;;;11.00;;
16660;SDS011;8444;52.012;5.048;2023-03-21T06:19:43;20.50;;;11.20;;
16660;SDS011;8444;52.012;5.048;2023-03-21T06:22:09;15.57;;;9.90;;
16660;SDS011;8444;52.012;5.048;2023-03-21T06:24:34;16.17;;;9.50;;
16660;SDS011;8444;52.012;5.048;2023-03-21T06:26:59;20.37;;;11.30;;
16660;SDS011;8444;52.012;5.048;2023-03-21T06:29:25;19.23;;;9.97;;
16660;SDS011;8444;52.012;5.048;2023-03-21T06:31:50;17.50;;;9.90;;
16660;SDS011;8444;52.012;5.048;2023-03-21T06:34:15;16.43;;;10.10;;
16660;SDS011;8444;52.012;5.048;2023-03-21T06:36:40;19.53;;;10.63;;
16660;SDS011;8444;52.012;5.048;2023-03-21T06:39:08;19.93;;;10.40;;
16660;SDS011;8444;52.012;5.048;2023-03-21T06:41:34;19.33;;;9.83;;
16660;SDS011;8444;52.012;5.048;2023-03-21T06:43:59;15.23;;;9.17;;
16660;SDS011;8444;52.012;5.048;2023-03-21T06:46:25;20.20;;;9.50;;
16660;SDS011;8444;52.012;5.048;2023-03-21T06:48:50;12.27;;;8.37;;
16660;SDS011;8444;52.012;5.048;2023-03-21T06:51:15;15.67;;;9.13;;
16660;SDS011;8444;52.012;5.048;2023-03-21T06:53:41;15.87;;;8.77;;
16660;SDS011;8444;52.012;5.048;2023-03-21T06:56:07;15.70;;;8.27;;
16660;SDS011;8444;52.012;5.048;2023-03-21T06:58:32;16.63;;;8.90;;
16660;SDS011;8444;52.012;5.048;2023-03-21T07:00:58;16.90;;;9.10;;
16660;SDS011;8444;52.012;5.048;2023-03-21T07:03:23;17.53;;;9.87;;
16660;SDS011;8444;52.012;5.048;2023-03-21T07:05:49;19.63;;;9.00;;
16660;SDS011;8444;52.012;5.048;2023-03-21T07:08:14;13.83;;;8.70;;
16660;SDS011;8444;52.012;5.048;2023-03-21T07:10:40;19.80;;;9.47;;
16660;SDS011;8444;52.012;5.048;2023-03-21T07:13:06;13.60;;;8.73;;
16660;SDS011;8444;52.012;5.048;2023-03-21T07:15:31;15.53;;;8.57;;
16660;SDS011;8444;52.012;5.048;2023-03-21T07:17:58;16.33;;;8.63;;
16660;SDS011;8444;52.012;5.048;2023-03-21T07:20:23;15.57;;;9.30;;
16660;SDS011;8444;52.012;5.048;2023-03-21T07:22:50;18.80;;;9.73;;
16660;SDS011;8444;52.012;5.048;2023-03-21T07:25:16;20.10;;;9.23;;
16660;SDS011;8444;52.012;5.048;2023-03-21T07:27:41;21.07;;;11.17;;
16660;SDS011;8444;52.012;5.048;2023-03-21T07:30:06;15.70;;;8.77;;
16660;SDS011;8444;52.012;5.048;2023-03-21T07:32:32;15.97;;;8.90;;
16660;SDS011;8444;52.012;5.048;2023-03-21T07:34:58;13.47;;;8.80;;
16660;SDS011;8444;52.012;5.048;2023-03-21T07:37:24;14.27;;;8.37;;
16660;SDS011;8444;52.012;5.048;2023-03-21T07:39:50;17.70;;;9.20;;
16660;SDS011;8444;52.012;5.048;2023-03-21T07:42:15;12.97;;;8.10;;
16660;SDS011;8444;52.012;5.048;2023-03-21T07:44:41;16.33;;;8.77;;
16660;SDS011;8444;52.012;5.048;2023-03-21T07:47:06;12.93;;;7.40;;
16660;SDS011;8444;52.012;5.048;2023-03-21T07:49:32;16.17;;;8.70;;
16660;SDS011;8444;52.012;5.048;2023-03-21T07:51:57;15.67;;;7.30;;
16660;SDS011;8444;52.012;5.048;2023-03-21T07:54:23;14.17;;;7.73;;
16660;SDS011;8444;52.012;5.048;2023-03-21T07:56:48;10.07;;;7.47;;
16660;SDS011;8444;52.012;5.048;2023-03-21T07:59:14;14.37;;;7.87;;
16660;SDS011;8444;52.012;5.048;2023-03-21T08:01:39;13.63;;;8.50;;
16660;SDS011;8444;52.012;5.048;2023-03-21T08:04:04;18.20;;;9.17;;
16660;SDS011;8444;52.012;5.048;2023-03-21T08:06:30;14.67;;;7.47;;
16660;SDS011;8444;52.012;5.048;2023-03-21T08:08:56;13.20;;;7.50;;
16660;SDS011;8444;52.012;5.048;2023-03-21T08:11:22;15.20;;;7.60;;
16660;SDS011;8444;52.012;5.048;2023-03-21T08:13:48;12.77;;;8.03;;
16660;SDS011;8444;52.012;5.048;2023-03-21T08:16:15;18.97;;;10.13;;
16660;SDS011;8444;52.012;5.048;2023-03-21T08:18:40;15.17;;;7.70;;
16660;SDS011;8444;52.012;5.048;2023-03-21T08:21:06;16.40;;;7.60;;
16660;SDS011;8444;52.012;5.048;2023-03-21T08:23:32;17.27;;;8.27;;
16660;SDS011;8444;52.012;5.048;2023-03-21T08:25:57;17.60;;;9.17;;
16660;SDS011;8444;52.012;5.048;2023-03-21T08:28:23;13.73;;;7.13;;
16660;SDS011;8444;52.012;5.048;2023-03-21T08:30:48;14.73;;;8.00;;
16660;SDS011;8444;52.012;5.048;2023-03-21T08:33:14;11.97;;;6.87;;
16660;SDS011;8444;52.012;5.048;2023-03-21T08:35:39;13.87;;;6.50;;
16660;SDS011;8444;52.012;5.048;2023-03-21T08:38:04;12.43;;;7.13;;
16660;SDS011;8444;52.012;5.048;2023-03-21T08:40:30;13.13;;;6.87;;
16660;SDS011;8444;52.012;5.048;2023-03-21T08:42:55;13.37;;;6.83;;
16660;SDS011;8444;52.012;5.048;2023-03-21T08:45:20;16.37;;;7.50;;
16660;SDS011;8444;52.012;5.048;2023-03-21T08:47:46;10.47;;;6.13;;
16660;SDS011;8444;52.012;5.048;2023-03-21T08:50:14;13.25;;;6.35;;
16660;SDS011;8444;52.012;5.048;2023-03-21T08:52:40;11.10;;;6.70;;
16660;SDS011;8444;52.012;5.048;2023-03-21T08:55:05;11.63;;;5.80;;
16660;SDS011;8444;52.012;5.048;2023-03-21T08:57:30;11.00;;;6.97;;
16660;SDS011;8444;52.012;5.048;2023-03-21T08:59:55;12.32;;;5.78;;
16660;SDS011;8444;52.012;5.048;2023-03-21T09:02:21;11.17;;;5.97;;
16660;SDS011;8444;52.012;5.048;2023-03-21T09:04:46;15.90;;;6.53;;
16660;SDS011;8444;52.012;5.048;2023-03-21T09:07:11;14.10;;;6.23;;
16660;SDS011;8444;52.012;5.048;2023-03-21T09:09:39;8.37;;;5.70;;
16660;SDS011;8444;52.012;5.048;2023-03-21T09:12:05;10.47;;;5.37;;
16660;SDS011;8444;52.012;5.048;2023-03-21T09:14:30;16.70;;;6.10;;
16660;SDS011;8444;52.012;5.048;2023-03-21T09:16:57;11.53;;;6.13;;
16660;SDS011;8444;52.012;5.048;2023-03-21T09:19:22;15.77;;;6.43;;
16660;SDS011;8444;52.012;5.048;2023-03-21T09:21:48;9.90;;;5.93;;
16660;SDS011;8444;52.012;5.048;2023-03-21T09:24:13;9.17;;;5.53;;
16660;SDS011;8444;52.012;5.048;2023-03-21T09:26:39;13.60;;;6.77;;
16660;SDS011;8444;52.012;5.048;2023-03-21T09:29:05;11.93;;;5.90;;
16660;SDS011;8444;52.012;5.048;2023-03-21T09:31:31;12.40;;;6.38;;
16660;SDS011;8444;52.012;5.048;2023-03-21T09:33:57;16.80;;;7.22;;
16660;SDS011;8444;52.012;5.048;2023-03-21T09:36:23;12.13;;;6.55;;
16660;SDS011;8444;52.012;5.048;2023-03-21T09:38:49;13.45;;;6.63;;
16660;SDS011;8444;52.012;5.048;2023-03-21T09:48:57;10.38;;;6.18;;
16660;SDS011;8444;52.012;5.048;2023-03-21T09:51:38;10.73;;;5.97;;
16660;SDS011;8444;52.012;5.048;2023-03-21T09:54:06;12.48;;;6.72;;
16660;SDS011;8444;52.012;5.048;2023-03-21T09:56:33;13.70;;;6.00;;
16660;SDS011;8444;52.012;5.048;2023-03-21T09:59:00;10.85;;;5.85;;
16660;SDS011;8444;52.012;5.048;2023-03-21T10:01:28;10.15;;;6.22;;
16660;SDS011;8444;52.012;5.048;2023-03-21T10:03:57;12.73;;;6.18;;
16660;SDS011;8444;52.012;5.048;2023-03-21T10:06:24;13.43;;;6.18;;
16660;SDS011;8444;52.012;5.048;2023-03-21T10:08:55;14.32;;;6.63;;
16660;SDS011;8444;52.012;5.048;2023-03-21T10:11:30;10.63;;;6.13;;
16660;SDS011;8444;52.012;5.048;2023-03-21T10:13:58;7.78;;;5.63;;
16660;SDS011;8444;52.012;5.048;2023-03-21T10:16:29;9.45;;;5.75;;
16660;SDS011;8444;52.012;5.048;2023-03-21T10:18:56;10.88;;;5.10;;
16660;SDS011;8444;52.012;5.048;2023-03-21T10:21:22;10.10;;;5.55;;
16660;SDS011;8444;52.012;5.048;2023-03-21T10:23:49;8.60;;;5.10;;
16660;SDS011;8444;52.012;5.048;2023-03-21T10:26:16;9.73;;;6.60;;
16660;SDS011;8444;52.012;5.048;2023-03-21T10:28:41;8.40;;;5.90;;
16660;SDS011;8444;52.012;5.048;2023-03-21T10:31:08;15.68;;;6.93;;
16660;SDS011;8444;52.012;5.048;2023-03-21T10:33:37;8.75;;;5.82;;
16660;SDS011;8444;52.012;5.048;2023-03-21T10:36:07;7.35;;;5.68;;
16660;SDS011;8444;52.012;5.048;2023-03-21T10:38:33;8.85;;;5.70;;
16660;SDS011;8444;52.012;5.048;2023-03-21T10:40:59;11.07;;;6.88;;
16660;SDS011;8444;52.012;5.048;2023-03-21T10:45:50;12.93;;;6.03;;
16660;SDS011;8444;52.012;5.048;2023-03-21T10:48:15;8.63;;;5.47;;
16660;SDS011;8444;52.012;5.048;2023-03-21T10:50:41;10.95;;;5.85;;
16660;SDS011;8444;52.012;5.048;2023-03-21T10:53:12;9.55;;;6.05;;
16660;SDS011;8444;52.012;5.048;2023-03-21T10:55:39;9.23;;;5.38;;
16660;SDS011;8444;52.012;5.048;2023-03-21T10:58:05;7.22;;;5.60;;
16660;SDS011;8444;52.012;5.048;2023-03-21T11:00:36;9.55;;;5.97;;
16660;SDS011;8444;52.012;5.048;2023-03-21T11:03:01;9.93;;;5.70;;
16660;SDS011;8444;52.012;5.048;2023-03-21T11:05:34;11.95;;;6.20;;
16660;SDS011;8444;52.012;5.048;2023-03-21T11:08:10;9.50;;;5.38;;
16660;SDS011;8444;52.012;5.048;2023-03-21T11:10:37;16.48;;;7.53;;
16660;SDS011;8444;52.012;5.048;2023-03-21T11:13:16;9.80;;;5.32;;
16660;SDS011;8444;52.012;5.048;2023-03-21T11:15:49;7.45;;;5.22;;
16660;SDS011;8444;52.012;5.048;2023-03-21T11:18:20;11.30;;;6.20;;
16660;SDS011;8444;52.012;5.048;2023-03-21T11:20:53;11.30;;;5.82;;
16660;SDS011;8444;52.012;5.048;2023-03-21T11:23:19;10.70;;;5.38;;
16660;SDS011;8444;52.012;5.048;2023-03-21T11:25:46;12.15;;;6.15;;
16660;SDS011;8444;52.012;5.048;2023-03-21T11:28:13;8.20;;;5.70;;
16660;SDS011;8444;52.012;5.048;2023-03-21T11:30:55;10.70;;;6.60;;
16660;SDS011;8444;52.012;5.048;2023-03-21T11:33:22;8.48;;;5.88;;
16660;SDS011;8444;52.012;5.048;2023-03-21T11:35:57;10.57;;;5.78;;
16660;SDS011;8444;52.012;5.048;2023-03-21T11:38:23;10.13;;;5.05;;
16660;SDS011;8444;52.012;5.048;2023-03-21T11:40:55;10.98;;;6.32;;
16660;SDS011;8444;52.012;5.048;2023-03-21T11:48:22;9.23;;;5.88;;
16660;SDS011;8444;52.012;5.048;2023-03-21T11:50:47;9.68;;;5.95;;
16660;SDS011;8444;52.012;5.048;2023-03-21T11:55:51;11.27;;;6.60;;
16660;SDS011;8444;52.012;5.048;2023-03-21T12:01:03;10.00;;;6.45;;
16660;SDS011;8444;52.012;5.048;2023-03-21T12:06:18;15.27;;;6.00;;
16660;SDS011;8444;52.012;5.048;2023-03-21T12:08:48;9.05;;;6.20;;
16660;SDS011;8444;52.012;5.048;2023-03-21T12:21:25;11.10;;;7.43;;
16660;SDS011;8444;52.012;5.048;2023-03-21T12:28:53;9.25;;;6.70;;
16660;SDS011;8444;52.012;5.048;2023-03-21T12:36:21;8.95;;;6.28;;
16660;SDS011;8444;52.012;5.048;2023-03-21T12:38:53;7.38;;;5.78;;
16660;SDS011;8444;52.012;5.048;2023-03-21T12:41:22;11.02;;;5.80;;
16660;SDS011;8444;52.012;5.048;2023-03-21T12:46:36;9.05;;;5.63;;
16660;SDS011;8444;52.012;5.048;2023-03-21T12:49:14;8.00;;;5.63;;
16660;SDS011;8444;52.012;5.048;2023-03-21T12:51:42;8.38;;;5.95;;
16660;SDS011;8444;52.012;5.048;2023-03-21T12:59:22;7.78;;;5.28;;
16660;SDS011;8444;52.012;5.048;2023-03-21T13:01:50;9.25;;;5.25;;
16660;SDS011;8444;52.012;5.048;2023-03-21T13:07:00;6.60;;;4.88;;
16660;SDS011;8444;52.012;5.048;2023-03-21T13:11:52;8.80;;;5.55;;
16660;SDS011;8444;52.012;5.048;2023-03-21T13:14:20;6.95;;;5.10;;
16660;SDS011;8444;52.012;5.048;2023-03-21T13:19:50;8.15;;;5.80;;
16660;SDS011;8444;52.012;5.048;2023-03-21T13:22:25;8.00;;;6.35;;
16660;SDS011;8444;52.012;5.048;2023-03-21T13:25:05;12.65;;;6.10;;
16660;SDS011;8444;52.012;5.048;2023-03-21T13:29:58;7.07;;;5.63;;
16660;SDS011;8444;52.012;5.048;2023-03-21T13:32:27;9.23;;;6.40;;
16660;SDS011;8444;52.012;5.048;2023-03-21T13:35:12;8.45;;;5.28;;
16660;SDS011;8444;52.012;5.048;2023-03-21T13:37:39;8.93;;;6.65;;
16660;SDS011;8444;52.012;5.048;2023-03-21T13:40:06;9.23;;;5.82;;
16660;SDS011;8444;52.012;5.048;2023-03-21T13:42:41;12.30;;;6.38;;
16660;SDS011;8444;52.012;5.048;2023-03-21T13:45:11;9.63;;;6.43;;
16660;SDS011;8444;52.012;5.048;2023-03-21T13:47:50;9.23;;;5.75;;
16660;SDS011;8444;52.012;5.048;2023-03-21T13:52:42;14.05;;;7.35;;
16660;SDS011;8444;52.012;5.048;2023-03-21T13:55:14;9.88;;;6.70;;
16660;SDS011;8444;52.012;5.048;2023-03-21T13:57:40;8.95;;;6.40;;
16660;SDS011;8444;52.012;5.048;2023-03-21T14:00:23;11.38;;;7.10;;
16660;SDS011;8444;52.012;5.048;2023-03-21T14:02:58;8.75;;;6.30;;
16660;SDS011;8444;52.012;5.048;2023-03-21T14:05:24;10.10;;;6.97;;
16660;SDS011;8444;52.012;5.048;2023-03-21T14:07:52;8.95;;;6.60;;
16660;SDS011;8444;52.012;5.048;2023-03-21T14:10:20;13.32;;;7.90;;
16660;SDS011;8444;52.012;5.048;2023-03-21T14:12:46;10.98;;;7.85;;
16660;SDS011;8444;52.012;5.048;2023-03-21T14:15:14;11.63;;;7.03;;
16660;SDS011;8444;52.012;5.048;2023-03-21T14:17:48;10.05;;;7.15;;
16660;SDS011;8444;52.012;5.048;2023-03-21T14:20:15;11.55;;;7.30;;
16660;SDS011;8444;52.012;5.048;2023-03-21T14:22:42;9.48;;;7.03;;
16660;SDS011;8444;52.012;5.048;2023-03-21T14:25:11;10.50;;;7.13;;
16660;SDS011;8444;52.012;5.048;2023-03-21T14:27:41;9.15;;;7.50;;
16660;SDS011;8444;52.012;5.048;2023-03-21T14:30:09;10.45;;;7.78;;
16660;SDS011;8444;52.012;5.048;2023-03-21T14:32:35;9.35;;;7.60;;
16660;SDS011;8444;52.012;5.048;2023-03-21T14:35:01;11.35;;;7.50;;
16660;SDS011;8444;52.012;5.048;2023-03-21T14:37:36;8.75;;;6.85;;
16660;SDS011;8444;52.012;5.048;2023-03-21T14:40:03;11.13;;;8.07;;
16660;SDS011;8444;52.012;5.048;2023-03-21T14:42:36;13.55;;;8.10;;
16660;SDS011;8444;52.012;5.048;2023-03-21T14:45:15;11.05;;;7.90;;
16660;SDS011;8444;52.012;5.048;2023-03-21T14:47:43;11.20;;;8.93;;
16660;SDS011;8444;52.012;5.048;2023-03-21T14:50:17;12.13;;;8.48;;
16660;SDS011;8444;52.012;5.048;2023-03-21T14:52:43;11.38;;;7.72;;
16660;SDS011;8444;52.012;5.048;2023-03-21T14:55:12;12.07;;;8.43;;
16660;SDS011;8444;52.012;5.048;2023-03-21T14:57:39;12.30;;;7.93;;
16660;SDS011;8444;52.012;5.048;2023-03-21T15:00:05;13.52;;;7.80;;
16660;SDS011;8444;52.012;5.048;2023-03-21T15:02:37;15.15;;;7.82;;
16660;SDS011;8444;52.012;5.048;2023-03-21T15:05:24;14.80;;;7.28;;
16660;SDS011;8444;52.012;5.048;2023-03-21T15:07:56;8.70;;;6.40;;
16660;SDS011;8444;52.012;5.048;2023-03-21T15:10:22;7.72;;;5.88;;
16660;SDS011;8444;52.012;5.048;2023-03-21T15:15:15;6.95;;;5.15;;
16660;SDS011;8444;52.012;5.048;2023-03-21T15:17:41;8.80;;;5.50;;
16660;SDS011;8444;52.012;5.048;2023-03-21T15:20:06;9.57;;;6.00;;
16660;SDS011;8444;52.012;5.048;2023-03-21T15:22:40;6.72;;;5.47;;
16660;SDS011;8444;52.012;5.048;2023-03-21T15:25:07;8.30;;;6.55;;
16660;SDS011;8444;52.012;5.048;2023-03-21T15:27:42;8.38;;;6.00;;
16660;SDS011;8444;52.012;5.048;2023-03-21T15:30:24;8.18;;;6.00;;
16660;SDS011;8444;52.012;5.048;2023-03-21T15:32:50;8.85;;;6.30;;
16660;SDS011;8444;52.012;5.048;2023-03-21T15:35:18;11.45;;;7.60;;
16660;SDS011;8444;52.012;5.048;2023-03-21T15:37:50;8.93;;;7.72;;
16660;SDS011;8444;52.012;5.048;2023-03-21T15:40:23;10.20;;;7.35;;
16660;SDS011;8444;52.012;5.048;2023-03-21T15:42:49;12.38;;;7.72;;
16660;SDS011;8444;52.012;5.048;2023-03-21T15:45:23;11.88;;;7.93;;
16660;SDS011;8444;52.012;5.048;2023-03-21T15:52:48;11.57;;;7.70;;
16660;SDS011;8444;52.012;5.048;2023-03-21T15:55:20;12.48;;;7.65;;
16660;SDS011;8444;52.012;5.048;2023-03-21T15:57:50;15.80;;;9.88;;
16660;SDS011;8444;52.012;5.048;2023-03-21T16:02:43;16.25;;;12.32;;
16660;SDS011;8444;52.012;5.048;2023-03-21T16:05:21;17.02;;;12.52;;
16660;SDS011;8444;52.012;5.048;2023-03-21T16:07:47;12.55;;;10.82;;
16660;SDS011;8444;52.012;5.048;2023-03-21T16:10:35;7.53;;;5.63;;
16660;SDS011;8444;52.012;5.048;2023-03-21T16:12:58;8.45;;;5.25;;
16660;SDS011;8444;52.012;5.048;2023-03-21T16:15:25;6.75;;;5.20;;
16660;SDS011;8444;52.012;5.048;2023-03-21T16:17:55;9.93;;;5.35;;
16660;SDS011;8444;52.012;5.048;2023-03-21T16:20:22;6.22;;;4.15;;
16660;SDS011;8444;52.012;5.048;2023-03-21T16:22:47;4.30;;;3.70;;
16660;SDS011;8444;52.012;5.048;2023-03-21T16:25:13;4.80;;;4.30;;
16660;SDS011;8444;52.012;5.048;2023-03-21T16:27:38;5.97;;;4.40;;
16660;SDS011;8444;52.012;5.048;2023-03-21T16:30:04;7.63;;;4.38;;
16660;SDS011;8444;52.012;5.048;2023-03-21T16:32:30;6.20;;;4.75;;
16660;SDS011;8444;52.012;5.048;2023-03-21T16:34:56;6.43;;;4.63;;
16660;SDS011;8444;52.012;5.048;2023-03-21T16:37:21;6.97;;;5.20;;
16660;SDS011;8444;52.012;5.048;2023-03-21T16:39:47;5.82;;;4.82;;